Terminal Aerodrome Forecast
Issued by NWS Medford, OR

Home | Current Version | Previous Version | Text Only | Print | Product List | Glossary On
Versions: 1 2 3 4 5 6 7 8 9 10 11 12 13 14 15 16 17 18
746
FTUS46 KMFR 132339
TAFMFR
TAF
KMFR 132339Z 1400/1424 14003KT P6SM BKN080 OVC120
     FM140400 15003KT P6SM -RA BKN030 OVC070
     FM141100 VRB02KT 4SM -RA BR OVC015
     FM141800 VRB03KT P6SM VCSH BKN035 OVC050=

USA.gov is the U.S. government's official web portal to all federal, state and local government web resources and services.